Valle Azzurra — ICEG — position and weather

sailwx.info

Track history (hours):
 
Tides and Currents Weather Stations Pressure Air Temp Water Temp Dewpoint Dewpoint Depression Visibility Wind Speed Wind Dir Waves Ship Positions

Valle Azzurra

Last reported at 2016-Feb-07 07:18 UTC. Time now 2016-Feb-07 08:42 UTC.
Position N 51°54' E 003°34'.

Length 183 m; draft 11.1 m.

Type: Tanker. MMSI: 247226600.

Date/timePositionNaut miles runAvg speedWind from/ knotsBaromVisibWave heightAir tempDewpointWater temp
2016-Feb-07 07:18N 51°54' E 003°34'0 0.1
2016-Feb-07 05:27N 51°55' E 003°34'0 0.0
2016-Feb-07 04:33N 51°55' E 003°34'0 0.0
2016-Feb-07 02:24N 51°55' E 003°34'0 0.0
2016-Feb-07 01:24N 51°55' E 003°34'0 0.0
2016-Feb-07 00:24N 51°55' E 003°34'0 0.0
2016-Feb-06 23:24N 51°55' E 003°34'0 0.1
2016-Feb-06 22:21N 51°55' E 003°34'0 0.2
2016-Feb-06 21:24N 51°54' E 003°34'0 0.1
2016-Feb-06 20:21N 51°54' E 003°34'0 0.0
2016-Feb-06 19:30N 51°54' E 003°34'0 0.1
2016-Feb-06 18:12N 51°54' E 003°34'0 0.1
2016-Feb-06 17:27N 51°55' E 003°34'0 0.0
2016-Feb-06 13:09N 51°55' E 003°34'0 0.0
2016-Feb-06 09:18N 51°55' E 003°34'1 2.0
2016-Feb-06 08:33N 51°56' E 003°32'35 7.1
2016-Feb-06 03:33N 52°11' E 002°40'12111.0
2016-Feb-05 16:33N 54°08' E 003°29'  
2016-Jan-29 19:09N 59°23' W 003°54'3 5.5
2016-Jan-29 18:33N 59°21' W 003°50'5 5.5
2016-Jan-29 17:33N 59°16' W 003°45'7 7.0
2016-Jan-29 16:33N 59°09' W 003°44'1111.0
2016-Jan-29 15:33N 59°01' W 003°60'1211.8
2016-Jan-29 14:33N 58°56' W 004°20'208 9.4
2016-Jan-28 16:19N 55°47' W 007°01'911.2
2016-Jan-28 15:33N 55°39' W 006°54'1211.8
2016-Jan-28 14:33N 55°30' W 006°41'1211.8
2016-Jan-28 13:33N 55°27' W 006°21'1111.4
2016-Jan-28 12:33N 55°24' W 006°02'1010.4
2016-Jan-28 11:33N 55°15' W 005°51'1110.7
2016-Jan-28 10:33N 55°06' W 005°41'1211.9
2016-Jan-28 09:33N 54°56' W 005°29'1212.1
2016-Jan-28 08:33N 54°46' W 005°18'1312.8
2016-Jan-28 07:33N 54°35' W 005°07'  
Track history (hours):
 
Tides and Currents Weather Stations Pressure Air Temp Water Temp Dewpoint Dewpoint Depression Visibility Wind Speed Wind Dir Waves Ship Positions

Valle Azzurra

Last reported at 2016-Feb-07 07:18 UTC. Time now 2016-Feb-07 08:42 UTC.
Position N 51°54' E 003°34'.

Length 183 m; draft 11.1 m.

Type: Tanker. MMSI: 247226600.

Date/timePositionNaut miles runAvg speedWind from/ knotsBaromVisibWave heightAir tempDewpointWater temp
2016-Feb-07 07:18N 51°54' E 003°34'0 0.1
2016-Feb-07 05:27N 51°55' E 003°34'0 0.0
2016-Feb-07 04:33N 51°55' E 003°34'0 0.0
2016-Feb-07 02:24N 51°55' E 003°34'0 0.0
2016-Feb-07 01:24N 51°55' E 003°34'0 0.0
2016-Feb-07 00:24N 51°55' E 003°34'0 0.0
2016-Feb-06 23:24N 51°55' E 003°34'0 0.1
2016-Feb-06 22:21N 51°55' E 003°34'0 0.2
2016-Feb-06 21:24N 51°54' E 003°34'0 0.1
2016-Feb-06 20:21N 51°54' E 003°34'0 0.0
2016-Feb-06 19:30N 51°54' E 003°34'0 0.1
2016-Feb-06 18:12N 51°54' E 003°34'0 0.1
2016-Feb-06 17:27N 51°55' E 003°34'0 0.0
2016-Feb-06 13:09N 51°55' E 003°34'0 0.0
2016-Feb-06 09:18N 51°55' E 003°34'1 2.0
2016-Feb-06 08:33N 51°56' E 003°32'35 7.1
2016-Feb-06 03:33N 52°11' E 002°40'12111.0
2016-Feb-05 16:33N 54°08' E 003°29'  
2016-Jan-29 19:09N 59°23' W 003°54'3 5.5
2016-Jan-29 18:33N 59°21' W 003°50'5 5.5
2016-Jan-29 17:33N 59°16' W 003°45'7 7.0
2016-Jan-29 16:33N 59°09' W 003°44'1111.0
2016-Jan-29 15:33N 59°01' W 003°60'1211.8
2016-Jan-29 14:33N 58°56' W 004°20'208 9.4
2016-Jan-28 16:19N 55°47' W 007°01'911.2
2016-Jan-28 15:33N 55°39' W 006°54'1211.8
2016-Jan-28 14:33N 55°30' W 006°41'1211.8
2016-Jan-28 13:33N 55°27' W 006°21'1111.4
2016-Jan-28 12:33N 55°24' W 006°02'1010.4
2016-Jan-28 11:33N 55°15' W 005°51'1110.7
2016-Jan-28 10:33N 55°06' W 005°41'1211.9
2016-Jan-28 09:33N 54°56' W 005°29'1212.1
2016-Jan-28 08:33N 54°46' W 005°18'1312.8
2016-Jan-28 07:33N 54°35' W 005°07'  

Dump ship's entire track history